Time;durP1;ratioP1;P1;durP2;ratioP2;P2;SDS_P1;SDS_P2;PMS_P1;PMS_P2;Temp;Humidity;BMP_temperature;BMP_pressure;BME280_temperature;BME280_humidity;BME280_pressure;Samples;Min_cycle;Max_cycle;Signal;HPM_P1;HPM_P2
2022/04/06 00:01:16;;;;;;;6.40;4.50;;;;;;;8.99;60.89;97895.30;233420;1217;139148;-58
2022/04/06 00:06:19;;;;;;;;;;;;;;;8.98;60.97;97892.40;233605;1216;138446;-57
2022/04/06 00:11:42;;;;;;;8.70;4.90;;;;;;;8.94;60.93;97883.89;233505;1216;125062;-58
2022/04/06 00:16:45;;;;;;;6.90;4.40;;;;;;;8.87;60.86;97889.31;233351;1216;139043;-57
2022/04/06 00:21:48;;;;;;;5.60;4.50;;;;;;;8.86;60.86;97892.06;233330;1217;139019;-58
2022/04/06 00:26:51;;;;;;;6.90;4.10;;;;;;;8.84;60.96;97892.08;233401;1216;138392;-58
2022/04/06 00:31:54;;;;;;;5.90;4.40;;;;;;;8.81;61.15;97881.46;233290;1217;138490;-58
2022/04/06 00:36:57;;;;;;;5.50;4.00;;;;;;;8.82;61.25;97874.90;233431;1216;138442;-58
2022/04/06 00:42:01;;;;;;;5.70;4.00;;;;;;;8.85;61.22;97876.94;233561;1216;139604;-61
2022/04/06 00:47:05;;;;;;;6.00;4.00;;;;;;;8.89;61.30;97879.14;233427;1217;138691;-58
2022/04/06 00:52:09;;;;;;;6.40;3.70;;;;;;;8.91;61.28;97872.92;233421;1217;140875;-60
2022/04/06 00:57:13;;;;;;;5.10;4.10;;;;;;;8.92;61.22;97875.34;233509;1216;138949;-58
2022/04/06 01:02:29;;;;;;;7.60;3.90;;;;;;;8.88;61.19;97873.34;233284;1217;138571;-59
2022/04/06 01:07:33;;;;;;;5.80;3.50;;;;;;;8.86;61.16;97869.06;233329;1217;138669;-58
2022/04/06 01:12:38;;;;;;;8.00;3.90;;;;;;;8.83;61.22;97865.04;233352;1217;139269;-58
2022/04/06 01:17:41;;;;;;;5.00;4.10;;;;;;;8.84;61.35;97857.89;233437;1217;139761;-60
2022/04/06 01:22:44;;;;;;;4.60;3.40;;;;;;;8.83;61.30;97863.84;233373;1217;138539;-59
2022/04/06 01:27:48;;;;;;;5.50;3.90;;;;;;;8.79;61.26;97860.40;233360;1217;139946;-58
2022/04/06 01:32:51;;;;;;;4.00;3.20;;;;;;;8.77;61.39;97864.42;233358;1217;138658;-59
2022/04/06 01:37:53;;;;;;;4.20;3.00;;;;;;;8.80;61.39;97870.94;233347;1217;138675;-59
2022/04/06 01:42:56;;;;;;;4.50;3.00;;;;;;;8.87;61.52;97859.63;233297;1217;139051;-57
2022/04/06 01:47:59;;;;;;;4.00;2.70;;;;;;;8.99;61.57;97857.52;233299;1217;139308;-59
2022/04/06 01:53:03;;;;;;;3.80;3.00;;;;;;;9.07;61.44;97862.93;233457;1217;140811;-56
2022/04/06 01:58:07;;;;;;;3.30;2.90;;;;;;;9.13;61.49;97864.18;233226;1217;138603;-59
2022/04/06 02:03:10;;;;;;;4.40;2.90;;;;;;;9.20;61.35;97867.79;233281;1217;138872;-59
2022/04/06 02:08:13;;;;;;;3.60;2.80;;;;;;;9.22;61.42;97862.98;233383;1217;139618;-57
2022/04/06 02:13:17;;;;;;;4.50;2.90;;;;;;;9.24;61.34;97872.78;233279;1217;138747;-59
2022/04/06 02:18:20;;;;;;;3.80;3.00;;;;;;;9.22;61.25;97873.63;233233;1217;138625;-58
2022/04/06 02:23:23;;;;;;;3.60;2.70;;;;;;;9.19;61.25;97868.21;233400;1217;138654;-60
2022/04/06 02:28:26;;;;;;;3.50;2.90;;;;;;;9.20;61.30;97868.08;233363;1217;138075;-59
2022/04/06 02:33:30;;;;;;;3.80;2.60;;;;;;;9.23;61.47;97859.95;233474;1217;139183;-59
2022/04/06 02:38:38;;;;;;;3.60;2.70;;;;;;;9.27;61.45;97865.32;233523;1217;139921;-59
2022/04/06 02:43:42;;;;;;;3.30;2.70;;;;;;;9.36;61.62;97869.19;233259;1217;138879;-59
2022/04/06 02:48:45;;;;;;;3.50;2.80;;;;;;;9.43;61.60;97871.52;233344;1217;139989;-58
2022/04/06 02:53:50;;;;;;;3.40;2.80;;;;;;;9.47;61.59;97868.56;233447;1217;138996;-59
2022/04/06 02:58:53;;;;;;;3.70;3.20;;;;;;;9.48;61.53;97873.41;233314;1217;138530;-62
2022/04/06 03:03:56;;;;;;;3.10;2.80;;;;;;;9.52;61.64;97880.07;233336;1217;138303;-58
2022/04/06 03:08:59;;;;;;;5.10;3.30;;;;;;;9.55;61.79;97873.46;233347;1217;138737;-59
2022/04/06 03:14:03;;;;;;;4.20;3.60;;;;;;;9.54;61.56;97877.23;233329;1217;138448;-59
2022/04/06 03:19:06;;;;;;;3.90;3.30;;;;;;;9.52;61.60;97875.80;233407;1217;138682;-58
2022/04/06 03:24:09;;;;;;;3.70;3.30;;;;;;;9.53;61.59;97882.09;233290;1217;138658;-59
2022/04/06 03:29:12;;;;;;;5.50;3.20;;;;;;;9.58;61.63;97881.55;233420;1217;140163;-58
2022/04/06 03:34:15;;;;;;;4.60;3.30;;;;;;;9.64;61.77;97884.46;233458;1217;139157;-59
2022/04/06 03:39:18;;;;;;;3.90;3.50;;;;;;;9.67;61.60;97887.20;233466;1217;138725;-58
2022/04/06 03:44:21;;;;;;;4.40;3.30;;;;;;;9.71;61.76;97887.77;233382;1217;139561;-58
2022/04/06 03:49:24;;;;;;;3.90;3.50;;;;;;;9.74;61.68;97888.99;233375;1217;140951;-58
2022/04/06 03:54:27;;;;;;;6.00;3.50;;;;;;;9.75;61.48;97884.64;233382;1217;138884;-58
2022/04/06 03:59:29;;;;;;;4.20;3.50;;;;;;;9.77;61.59;97891.44;233416;1217;138477;-58
2022/04/06 04:04:32;;;;;;;4.00;3.50;;;;;;;9.77;61.54;97893.02;233343;1217;138848;-59
2022/04/06 04:09:36;;;;;;;3.60;3.20;;;;;;;9.76;61.42;97889.55;233413;1217;138573;-58
2022/04/06 04:14:39;;;;;;;5.00;3.30;;;;;;;9.77;61.64;97892.31;233234;1217;139357;-59
2022/04/06 04:19:42;;;;;;;4.10;3.40;;;;;;;9.80;61.56;97894.88;233349;1217;139721;-60
2022/04/06 04:24:45;;;;;;;6.70;3.80;;;;;;;9.84;61.72;97900.58;233448;1217;138257;-59
2022/04/06 04:29:49;;;;;;;4.30;3.80;;;;;;;9.87;61.55;97904.79;233571;1217;138656;-59
2022/04/06 04:34:52;;;;;;;5.40;4.20;;;;;;;9.90;61.63;97907.23;233320;1217;138903;-60
2022/04/06 04:39:55;;;;;;;6.50;3.90;;;;;;;9.90;61.67;97911.80;233501;1217;139066;-60
2022/04/06 04:44:58;;;;;;;6.30;4.50;;;;;;;9.95;61.66;97914.80;233369;1217;138688;-60
2022/04/06 04:50:01;;;;;;;5.80;5.00;;;;;;;9.99;61.82;97921.23;233258;1217;139130;-61
2022/04/06 04:55:04;;;;;;;5.70;4.30;;;;;;;10.01;61.59;97921.96;233365;1217;138535;-58
2022/04/06 05:00:09;;;;;;;6.10;3.60;;;;;;;10.04;61.67;97927.09;233472;1216;140227;-58
2022/04/06 05:05:12;;;;;;;7.30;4.60;;;;;;;10.10;61.59;97929.23;233646;1217;139597;-59
2022/04/06 05:10:15;;;;;;;8.40;4.60;;;;;;;10.17;61.68;97934.02;233480;1217;139252;-59
2022/04/06 05:15:19;;;;;;;6.30;4.40;;;;;;;10.26;61.78;97936.74;233408;1217;138773;-57
2022/04/06 05:20:22;;;;;;;7.70;4.50;;;;;;;10.32;61.66;97945.31;233210;1217;140221;-60
2022/04/06 05:25:25;;;;;;;5.60;3.90;;;;;;;10.35;61.44;97952.27;233250;1217;138828;-59
2022/04/06 05:30:30;;;;;;;5.90;4.20;;;;;;;10.37;61.27;97965.40;233167;1217;139986;-57
2022/04/06 05:35:34;;;;;;;4.30;3.50;;;;;;;10.36;61.09;97971.91;232911;1216;139510;-57
2022/04/06 05:40:37;;;;;;;6.00;3.90;;;;;;;10.33;61.14;97980.13;233518;1217;138176;-57
2022/04/06 05:45:40;;;;;;;5.60;4.10;;;;;;;10.30;61.24;97980.15;233397;1217;139287;-60
2022/04/06 05:50:43;;;;;;;5.30;3.50;;;;;;;10.29;61.24;97980.27;233296;1217;139202;-58
2022/04/06 05:55:47;;;;;;;6.70;3.70;;;;;;;10.32;61.60;97982.35;233446;1217;139002;-58
2022/04/06 06:00:50;;;;;;;5.60;3.20;;;;;;;10.38;61.11;97985.91;233363;1217;139112;-59
2022/04/06 06:05:53;;;;;;;4.80;3.60;;;;;;;10.46;61.06;97989.20;233485;1217;139347;-61
2022/04/06 06:10:56;;;;;;;7.00;3.80;;;;;;;10.53;61.15;97985.98;233378;1217;138595;-60
2022/04/06 06:16:02;;;;;;;6.10;3.90;;;;;;;10.58;61.05;97988.27;233431;1217;138422;-58
2022/04/06 06:21:05;;;;;;;9.50;3.60;;;;;;;10.62;60.90;97992.76;233483;1217;140103;-58
2022/04/06 06:26:08;;;;;;;4.00;3.40;;;;;;;10.64;60.92;97987.91;233441;1217;139674;-58
2022/04/06 06:31:12;;;;;;;4.70;3.20;;;;;;;10.72;60.87;97985.06;233388;1217;139036;-60
2022/04/06 06:36:15;;;;;;;7.40;4.10;;;;;;;10.79;61.13;97983.77;233407;1217;139579;-60
2022/04/06 06:41:19;;;;;;;22.30;15.50;;;;;;;10.88;61.24;97986.04;233609;1217;138916;-59
2022/04/06 06:46:22;;;;;;;4.80;3.60;;;;;;;11.01;61.23;97984.09;233300;1217;139283;-59
2022/04/06 06:51:28;;;;;;;11.20;3.90;;;;;;;11.12;61.03;97985.69;233436;1216;139998;-58
2022/04/06 06:56:32;;;;;;;43.10;34.40;;;;;;;11.23;61.43;97991.20;233373;1217;140707;-59
2022/04/06 07:01:35;;;;;;;6.80;4.10;;;;;;;11.40;60.70;97993.19;233474;1217;141121;-57
2022/04/06 07:06:38;;;;;;;6.40;4.30;;;;;;;11.52;60.69;97996.10;233463;1217;138777;-58
2022/04/06 07:11:42;;;;;;;5.80;3.60;;;;;;;11.63;60.81;98001.41;233466;1217;139160;-59
2022/04/06 07:16:45;;;;;;;5.20;3.60;;;;;;;11.70;60.21;98003.52;233343;1217;139058;-58
2022/04/06 07:21:48;;;;;;;5.70;3.60;;;;;;;11.69;59.91;98009.59;233411;1217;138940;-58
2022/04/06 07:26:51;;;;;;;5.20;3.60;;;;;;;11.68;59.81;98012.90;233426;1217;138763;-59
2022/04/06 07:31:54;;;;;;;5.20;3.10;;;;;;;11.66;60.10;98015.55;233428;1217;139201;-59
2022/04/06 07:36:57;;;;;;;5.80;3.50;;;;;;;11.64;59.65;98020.01;233523;1217;139398;-58
2022/04/06 07:42:05;;;;;;;4.60;3.70;;;;;;;11.62;59.69;98020.85;233375;1217;139095;-59
2022/04/06 07:47:08;;;;;;;6.80;4.90;;;;;;;11.63;59.98;98025.92;233655;1216;141301;-58
2022/04/06 07:52:11;;;;;;;6.10;3.70;;;;;;;11.63;59.40;98028.26;233380;1217;139197;-59
2022/04/06 07:57:14;;;;;;;3.70;3.20;;;;;;;11.57;59.86;98023.92;233501;1217;138513;-59
2022/04/06 08:02:17;;;;;;;4.50;3.10;;;;;;;11.57;59.80;98026.91;233476;1217;139031;-59
2022/04/06 08:07:20;;;;;;;5.60;3.30;;;;;;;11.59;59.91;98030.68;233470;1217;139393;-58
2022/04/06 08:12:23;;;;;;;5.60;3.20;;;;;;;11.62;59.69;98034.52;233362;1217;139461;-60
2022/04/06 08:17:26;;;;;;;5.90;3.30;;;;;;;11.64;59.60;98039.95;233305;1217;139936;-56
2022/04/06 08:22:30;;;;;;;3.80;3.20;;;;;;;11.65;60.14;98040.19;233324;1217;140776;-59
2022/04/06 08:27:39;;;;;;;13.30;9.20;;;;;;;11.75;60.39;98043.78;233339;1217;139097;-57
2022/04/06 08:32:42;;;;;;;3.70;3.20;;;;;;;11.91;60.43;98051.30;233383;1217;139492;-57
2022/04/06 08:37:45;;;;;;;4.10;3.10;;;;;;;11.99;60.07;98038.92;233303;1217;140187;-56
2022/04/06 08:42:49;;;;;;;63.00;43.80;;;;;;;12.09;59.71;98039.71;233389;1217;139092;-56
2022/04/06 08:47:53;;;;;;;5.80;4.30;;;;;;;12.27;59.93;98043.02;233436;1217;139278;-57
2022/04/06 08:52:58;;;;;;;3.70;3.10;;;;;;;12.41;59.48;98045.71;233413;1216;138877;-58
2022/04/06 08:58:04;;;;;;;5.20;3.60;;;;;;;12.46;59.28;98047.41;233310;1216;139454;-55
2022/04/06 09:03:07;;;;;;;3.50;2.60;;;;;;;12.47;59.39;98059.38;233393;1217;141369;-57
2022/04/06 09:08:11;;;;;;;4.40;3.10;;;;;;;12.46;58.99;98051.64;233253;1215;138968;-58
2022/04/06 09:13:20;;;;;;;4.80;2.70;;;;;;;12.46;59.27;98051.67;233321;1217;139232;-58
2022/04/06 09:18:35;;;;;;;3.50;2.40;;;;;;;12.45;59.24;98049.41;233310;1217;139197;-58
2022/04/06 09:23:39;;;;;;;4.50;3.00;;;;;;;12.43;58.89;98053.05;233448;1217;139786;-57
2022/04/06 09:28:45;;;;;;;4.60;2.80;;;;;;;12.41;58.82;98054.56;233249;1217;139663;-58
2022/04/06 09:33:59;;;;;;;8.50;4.60;;;;;;;12.44;59.42;98054.17;233276;1217;139014;-56
2022/04/06 09:39:02;;;;;;;4.30;3.10;;;;;;;12.44;59.07;98057.73;233279;1217;140693;-56
2022/04/06 09:47:38;;;;;;;4.70;2.90;;;;;;;12.41;59.09;98056.78;233422;1217;138654;-59
2022/04/06 09:49:33;;;;;;;5.00;2.80;;;;;;;12.38;59.33;98059.87;233341;1217;139286;-58
2022/04/06 09:54:38;;;;;;;6.70;3.30;;;;;;;12.34;58.87;98052.15;233165;1217;139893;-60
2022/04/06 09:59:42;;;;;;;6.10;3.30;;;;;;;12.37;59.10;98046.48;233428;1217;139332;-57
2022/04/06 10:04:49;;;;;;;6.60;3.10;;;;;;;12.41;59.43;98051.54;233244;1217;139260;-58
2022/04/06 10:09:53;;;;;;;74.50;45.30;;;;;;;12.46;59.62;98043.87;233247;1216;139118;-59
2022/04/06 10:14:59;;;;;;;6.80;4.40;;;;;;;12.55;59.55;98033.46;233314;1217;139944;-56
2022/04/06 10:20:08;;;;;;;7.50;3.60;;;;;;;12.66;59.47;98028.98;233263;1217;139502;-58
2022/04/06 10:25:21;;;;;;;4.30;2.90;;;;;;;12.82;59.54;98026.67;233281;1217;139752;-57
2022/04/06 10:30:26;;;;;;;3.90;2.40;;;;;;;13.00;59.07;98034.52;233276;1217;139144;-57
2022/04/06 10:35:33;;;;;;;3.10;2.80;;;;;;;13.28;58.87;98027.50;233458;1216;139991;-57
2022/04/06 10:40:42;;;;;;;4.50;3.30;;;;;;;13.43;58.71;98018.83;233380;1217;139434;-55
2022/04/06 10:45:45;;;;;;;6.20;2.90;;;;;;;13.43;58.47;98010.91;233338;1217;139747;-58
2022/04/06 10:50:49;;;;;;;3.70;2.50;;;;;;;13.38;58.15;98016.92;233270;1217;139410;-56
2022/04/06 10:56:03;;;;;;;4.70;2.30;;;;;;;13.36;58.11;98011.58;233369;1217;140631;-58
2022/04/06 11:01:17;;;;;;;3.30;2.00;;;;;;;13.41;57.78;98004.91;233249;1217;139777;-58
2022/04/06 11:06:48;;;;;;;4.70;1.90;;;;;;;13.42;57.26;98006.89;233255;1216;139208;-57
2022/04/06 11:12:05;;;;;;;133.20;88.60;;;;;;;13.41;57.44;98010.04;233464;1216;138695;-56
2022/04/06 11:17:41;;;;;;;7.10;3.40;;;;;;;13.45;57.40;98002.59;233369;1217;139509;-58
2022/04/06 11:22:50;;;;;;;3.90;2.30;;;;;;;13.53;57.09;98004.67;233150;1216;138995;-57
2022/04/06 11:27:57;;;;;;;3.80;1.80;;;;;;;13.66;56.90;98006.23;233255;1217;138989;-59
2022/04/06 11:33:02;;;;;;;4.80;1.80;;;;;;;13.89;56.94;98002.96;233250;1217;139070;-58
2022/04/06 11:38:07;;;;;;;3.90;1.80;;;;;;;14.24;56.81;97993.29;233286;1217;138797;-58
2022/04/06 11:43:10;;;;;;;3.50;1.60;;;;;;;14.57;56.23;97987.41;233211;1217;139315;-59
2022/04/06 11:48:15;;;;;;;3.70;1.90;;;;;;;14.61;55.50;97986.63;233246;1217;139243;-58
2022/04/06 11:53:18;;;;;;;2.90;1.90;;;;;;;14.49;54.90;97979.59;233354;1217;139187;-57
2022/04/06 11:58:32;;;;;;;4.70;2.30;;;;;;;14.38;54.92;97973.46;233383;1217;141799;-58
2022/04/06 12:03:36;;;;;;;3.00;2.10;;;;;;;14.46;55.11;97969.14;233309;1217;138720;-58
2022/04/06 12:08:41;;;;;;;4.90;2.00;;;;;;;14.74;54.90;97964.92;233213;1217;138425;-58
2022/04/06 12:13:44;;;;;;;3.40;2.20;;;;;;;14.84;54.37;97954.80;233289;1217;138639;-58
2022/04/06 12:18:51;;;;;;;2.80;1.90;;;;;;;14.97;54.19;97949.77;233355;1215;138746;-58
2022/04/06 12:23:58;;;;;;;3.00;2.10;;;;;;;15.11;54.12;97942.31;233482;1217;139298;-56
2022/04/06 12:29:01;;;;;;;1.90;1.60;;;;;;;15.19;53.47;97935.55;233346;1215;138837;-56
2022/04/06 12:34:04;;;;;;;3.90;2.00;;;;;;;15.19;53.13;97932.14;233286;1217;138680;-57
2022/04/06 12:39:13;;;;;;;3.50;1.90;;;;;;;15.16;52.98;97924.30;233323;1217;139770;-56
2022/04/06 12:44:17;;;;;;;2.80;1.80;;;;;;;15.13;52.73;97920.02;233317;1217;139666;-54
2022/04/06 12:49:22;;;;;;;2.60;1.90;;;;;;;15.13;52.81;97914.22;233333;1215;139026;-58
2022/04/06 12:54:28;;;;;;;3.00;1.60;;;;;;;15.19;52.45;97914.05;233852;1217;138915;-58
2022/04/06 12:59:45;;;;;;;6.70;3.60;;;;;;;15.44;52.63;97892.60;233786;1217;139146;-59
2022/04/06 13:04:50;;;;;;;2.90;1.80;;;;;;;15.75;52.33;97894.84;233545;1216;140510;-55
2022/04/06 13:09:57;;;;;;;2.90;1.70;;;;;;;15.92;51.76;97893.89;233814;1217;139289;-57
2022/04/06 13:15:02;;;;;;;3.40;1.70;;;;;;;15.90;51.26;97898.85;233885;1217;139245;-56
2022/04/06 13:20:09;;;;;;;4.50;1.60;;;;;;;15.83;50.59;97890.48;233517;1216;139166;-54
2022/04/06 13:25:13;;;;;;;20.30;14.10;;;;;;;15.72;50.63;97880.63;233285;1217;139177;-59
2022/04/06 13:30:18;;;;;;;2.60;1.80;;;;;;;15.59;50.50;97874.98;233339;1217;139586;-57
2022/04/06 13:35:21;;;;;;;14.00;5.90;;;;;;;15.50;50.59;97869.80;233389;1217;138888;-57
2022/04/06 13:40:25;;;;;;;2.10;1.60;;;;;;;15.47;50.38;97856.23;233377;1217;139820;-57
2022/04/06 13:45:28;;;;;;;8.00;1.70;;;;;;;15.41;50.42;97843.55;233305;1216;138880;-57
2022/04/06 13:50:31;;;;;;;2.50;1.30;;;;;;;15.37;50.38;97838.79;233187;1217;139087;-57
2022/04/06 13:55:35;;;;;;;3.00;1.50;;;;;;;15.49;50.66;97836.11;233227;1217;138902;-57
2022/04/06 14:00:38;;;;;;;1.90;1.40;;;;;;;15.83;50.94;97832.55;233177;1216;139300;-57
2022/04/06 14:05:41;;;;;;;2.20;1.40;;;;;;;16.36;50.45;97820.22;233328;1217;139900;-58
2022/04/06 14:10:46;;;;;;;2.80;1.30;;;;;;;16.75;50.17;97818.73;233358;1216;138815;-57
2022/04/06 14:15:49;;;;;;;1.70;1.40;;;;;;;16.93;49.69;97815.98;233233;1216;138997;-57
2022/04/06 14:20:52;;;;;;;22.00;16.30;;;;;;;16.85;49.12;97807.47;233153;1217;138700;-56
2022/04/06 14:25:55;;;;;;;2.90;2.10;;;;;;;16.73;49.19;97811.96;233311;1216;139502;-59
2022/04/06 14:30:58;;;;;;;3.00;1.60;;;;;;;16.59;48.74;97807.75;233254;1217;139838;-56
2022/04/06 14:36:03;;;;;;;5.00;1.90;;;;;;;16.45;49.07;97803.91;233359;1217;139621;-57
2022/04/06 14:41:09;;;;;;;6.30;1.90;;;;;;;16.30;48.80;97788.02;233214;1217;139053;-56
2022/04/06 14:46:12;;;;;;;;;;;;;;;16.20;48.71;97789.98;233276;1216;139100;-55
2022/04/06 14:51:15;;;;;;;3.30;1.70;;;;;;;16.05;48.62;97769.96;233336;1217;125404;-57
2022/04/06 14:56:22;;;;;;;2.40;1.40;;;;;;;15.98;48.65;97782.17;233071;1217;138567;-57
2022/04/06 15:01:25;;;;;;;2.90;1.50;;;;;;;15.85;48.50;97772.92;233383;1217;140308;-57
2022/04/06 15:06:29;;;;;;;3.00;1.60;;;;;;;15.79;48.35;97784.63;233259;1217;139863;-57
2022/04/06 15:11:32;;;;;;;34.30;28.90;;;;;;;15.76;48.83;97763.65;233282;1217;138985;-54
2022/04/06 15:16:35;;;;;;;5.50;2.50;;;;;;;15.78;48.71;97761.68;233208;1217;139389;-56
2022/04/06 15:21:38;;;;;;;3.90;1.90;;;;;;;15.80;48.75;97766.78;233221;1217;138775;-56
2022/04/06 15:26:41;;;;;;;3.00;1.70;;;;;;;15.75;48.50;97763.77;233239;1216;139749;-58
2022/04/06 15:31:44;;;;;;;2.70;1.80;;;;;;;15.68;48.49;97764.55;233226;1216;139177;-55
2022/04/06 15:42:26;;;;;;;4.10;1.80;;;;;;;15.52;48.57;97758.81;233262;1217;138769;-55
2022/04/06 15:47:29;;;;;;;3.90;2.10;;;;;;;15.42;48.67;97741.02;233474;1217;139480;-57
2022/04/06 15:52:32;;;;;;;2.50;1.80;;;;;;;15.39;48.75;97737.94;233289;1217;140162;-56
2022/04/06 15:57:35;;;;;;;3.00;1.60;;;;;;;15.38;48.92;97734.42;233273;1216;138974;-55
2022/04/06 16:02:39;;;;;;;3.90;2.00;;;;;;;15.38;49.03;97726.84;233368;1217;138975;-55
2022/04/06 16:07:43;;;;;;;3.20;1.90;;;;;;;15.41;49.00;97719.20;233230;1217;139070;-57
2022/04/06 16:12:45;;;;;;;3.50;2.00;;;;;;;15.43;49.04;97712.71;233259;1217;139124;-57
2022/04/06 16:17:50;;;;;;;4.10;1.70;;;;;;;15.45;49.16;97701.44;233469;1217;139376;-56
2022/04/06 16:22:54;;;;;;;;;;;;;;;15.48;49.25;97702.03;233554;1216;138846;-57
2022/04/06 16:27:57;;;;;;;10.20;5.70;;;;;;;15.53;49.25;97703.04;233311;1216;125126;-57
2022/04/06 16:33:01;;;;;;;4.10;2.20;;;;;;;15.57;49.35;97693.55;233341;1216;139280;-59
2022/04/06 16:38:04;;;;;;;4.80;2.00;;;;;;;15.53;49.34;97690.37;233258;1216;139316;-55
2022/04/06 16:43:07;;;;;;;5.20;1.90;;;;;;;15.49;49.26;97690.24;233291;1217;139185;-59
2022/04/06 16:48:10;;;;;;;153.50;89.70;;;;;;;15.44;49.36;97684.86;233398;1217;139455;-60
2022/04/06 16:53:13;;;;;;;9.40;5.40;;;;;;;15.41;49.69;97681.65;233427;1217;139433;-56
2022/04/06 16:58:16;;;;;;;5.60;3.10;;;;;;;15.40;49.57;97678.34;233255;1217;139150;-56
2022/04/06 17:03:19;;;;;;;7.20;2.40;;;;;;;15.32;49.41;97668.96;233395;1217;139138;-59
2022/04/06 17:08:23;;;;;;;3.80;2.30;;;;;;;15.27;49.44;97670.41;233302;1217;138985;-57
2022/04/06 17:13:26;;;;;;;3.90;2.00;;;;;;;15.22;49.40;97667.87;233347;1217;138853;-56
2022/04/06 17:18:29;;;;;;;5.80;2.40;;;;;;;15.15;49.70;97667.52;233287;1217;138958;-58
2022/04/06 17:23:31;;;;;;;5.50;2.20;;;;;;;15.10;49.66;97669.84;233253;1217;139227;-57
2022/04/06 17:28:51;;;;;;;4.10;2.20;;;;;;;15.07;49.75;97670.45;233237;1217;138638;-57
2022/04/06 17:33:55;;;;;;;4.40;2.50;;;;;;;15.04;49.86;97669.37;233229;1217;138665;-56
2022/04/06 17:38:59;;;;;;;6.60;2.50;;;;;;;14.99;50.01;97669.56;233151;1217;139465;-56
2022/04/06 17:44:06;;;;;;;4.20;2.20;;;;;;;14.96;49.98;97666.42;233427;1216;141457;-54
2022/04/06 17:49:09;;;;;;;206.90;175.80;;;;;;;14.99;50.39;97671.33;233357;1217;140528;-57
2022/04/06 17:54:15;;;;;;;25.90;11.20;;;;;;;15.06;50.56;97664.14;233568;1217;140015;-58
2022/04/06 17:59:18;;;;;;;9.90;4.00;;;;;;;15.10;50.38;97675.50;233320;1216;140411;-57
2022/04/06 18:04:21;;;;;;;7.00;3.20;;;;;;;15.04;50.29;97671.55;233292;1217;139747;-54
2022/04/06 18:09:24;;;;;;;7.50;3.20;;;;;;;15.01;50.29;97676.34;233258;1217;138868;-58
2022/04/06 18:14:28;;;;;;;5.20;3.20;;;;;;;15.00;50.25;97679.85;233355;1217;138664;-56
2022/04/06 18:19:31;;;;;;;12.30;3.80;;;;;;;14.98;50.37;97682.15;233356;1217;139605;-56
2022/04/06 18:24:34;;;;;;;8.90;3.70;;;;;;;14.97;50.47;97682.29;233312;1217;139323;-55
2022/04/06 18:29:38;;;;;;;8.60;4.00;;;;;;;14.97;50.51;97677.82;233387;1217;138885;-57
2022/04/06 18:34:46;;;;;;;11.80;4.70;;;;;;;14.92;50.46;97672.00;233325;1217;140012;-56
2022/04/06 18:39:51;;;;;;;8.40;4.90;;;;;;;14.89;50.52;97678.20;233134;1217;139430;-56
2022/04/06 18:45:04;;;;;;;9.80;5.20;;;;;;;14.86;50.73;97675.48;233244;1217;138843;-54
2022/04/06 18:50:08;;;;;;;8.30;4.70;;;;;;;14.75;50.62;97670.33;233268;1217;139062;-57
2022/04/06 18:55:11;;;;;;;45.80;39.80;;;;;;;14.67;50.67;97664.09;233245;1217;139279;-58
2022/04/06 19:00:15;;;;;;;30.70;21.40;;;;;;;14.68;51.13;97661.83;233298;1217;141243;-57
2022/04/06 19:05:20;;;;;;;12.50;6.70;;;;;;;14.73;51.25;97663.84;233438;1216;139544;-58
2022/04/06 19:10:24;;;;;;;12.80;6.50;;;;;;;14.67;51.10;97664.36;233372;1217;138949;-59
2022/04/06 19:15:28;;;;;;;12.80;6.30;;;;;;;14.64;50.87;97668.76;233326;1217;139257;-60
2022/04/06 19:20:31;;;;;;;13.20;6.10;;;;;;;14.55;51.17;97673.46;233319;1217;139289;-59
2022/04/06 19:25:40;;;;;;;11.00;6.00;;;;;;;14.43;51.17;97670.35;233453;1216;140594;-59
2022/04/06 19:30:43;;;;;;;14.10;6.30;;;;;;;14.37;51.35;97673.37;233382;1217;139493;-57
2022/04/06 19:35:49;;;;;;;13.10;7.00;;;;;;;14.28;51.51;97672.55;233478;1217;139511;-58
2022/04/06 19:40:52;;;;;;;12.90;6.20;;;;;;;14.14;51.50;97669.02;233447;1217;138772;-57
2022/04/06 19:45:56;;;;;;;19.50;7.40;;;;;;;14.00;51.71;97662.83;233400;1217;139868;-57
2022/04/06 19:50:59;;;;;;;12.20;6.40;;;;;;;13.83;52.09;97653.77;233338;1217;139349;-56
2022/04/06 19:56:03;;;;;;;14.10;7.00;;;;;;;13.70;52.40;97658.83;233244;1217;140634;-56
2022/04/06 20:01:06;;;;;;;14.60;7.70;;;;;;;13.57;52.54;97651.18;233198;1217;140086;-55
2022/04/06 20:06:11;;;;;;;16.60;7.50;;;;;;;13.45;52.57;97642.30;233469;1217;139559;-54
2022/04/06 20:11:15;;;;;;;16.20;7.60;;;;;;;13.35;53.05;97634.52;233300;1217;139048;-55
2022/04/06 20:16:18;;;;;;;17.90;9.80;;;;;;;13.29;53.05;97640.29;233277;1217;139216;-57
2022/04/06 20:21:23;;;;;;;19.50;8.60;;;;;;;13.26;53.27;97631.84;233249;1217;139415;-55
2022/04/06 20:26:26;;;;;;;20.20;9.30;;;;;;;13.21;53.33;97628.93;233265;1217;139244;-55
2022/04/06 20:31:29;;;;;;;20.80;10.00;;;;;;;13.16;53.58;97622.48;233286;1217;139639;-57
2022/04/06 20:36:32;;;;;;;19.20;9.90;;;;;;;13.11;53.77;97621.48;233184;1217;141393;-56
2022/04/06 20:41:35;;;;;;;17.90;9.70;;;;;;;13.02;53.64;97608.63;233385;1217;139297;-56
2022/04/06 20:46:38;;;;;;;23.70;12.20;;;;;;;12.93;53.77;97604.20;233377;1217;139095;-59
2022/04/06 20:51:41;;;;;;;17.10;9.40;;;;;;;12.83;53.93;97601.59;233318;1217;139477;-59
2022/04/06 20:56:45;;;;;;;23.10;10.70;;;;;;;12.72;54.30;97601.35;233376;1217;138890;-57
2022/04/06 21:01:48;;;;;;;21.10;9.80;;;;;;;12.61;54.13;97596.54;233353;1217;139771;-60
2022/04/06 21:06:51;;;;;;;23.70;10.30;;;;;;;12.49;54.46;97592.42;233452;1217;139248;-58
2022/04/06 21:11:54;;;;;;;20.20;10.20;;;;;;;12.39;55.02;97585.63;233512;1217;139512;-57
2022/04/06 21:16:57;;;;;;;20.50;9.90;;;;;;;12.27;54.80;97581.11;233270;1217;140500;-57
2022/04/06 21:22:01;;;;;;;25.70;10.20;;;;;;;12.17;55.28;97582.80;233341;1217;138938;-59
2022/04/06 21:27:04;;;;;;;17.10;9.50;;;;;;;12.08;55.43;97583.98;233300;1217;139295;-59
2022/04/06 21:32:07;;;;;;;19.00;9.70;;;;;;;11.97;55.75;97578.06;233338;1217;139668;-58
2022/04/06 21:37:11;;;;;;;19.30;10.20;;;;;;;11.88;55.73;97569.98;233346;1215;139640;-58
2022/04/06 21:42:14;;;;;;;18.40;9.00;;;;;;;11.78;56.06;97573.35;233392;1217;139344;-56
2022/04/06 21:47:17;;;;;;;17.00;9.20;;;;;;;11.68;56.13;97564.51;233392;1217;139641;-59
2022/04/06 21:52:20;;;;;;;15.80;9.80;;;;;;;11.60;56.43;97560.04;233451;1217;138992;-58
2022/04/06 21:57:23;;;;;;;18.00;9.50;;;;;;;11.52;56.54;97551.30;233391;1217;139404;-57
2022/04/06 22:02:26;;;;;;;20.50;10.10;;;;;;;11.45;56.43;97547.70;233482;1217;139312;-57
2022/04/06 22:07:29;;;;;;;19.70;11.70;;;;;;;11.39;56.82;97548.14;233327;1217;139869;-58
2022/04/06 22:12:31;;;;;;;18.70;10.50;;;;;;;11.30;56.58;97539.65;233385;1217;139362;-57
2022/04/06 22:17:35;;;;;;;19.40;9.40;;;;;;;11.23;56.97;97532.45;233433;1217;140826;-59
2022/04/06 22:22:38;;;;;;;20.80;9.40;;;;;;;11.10;56.99;97533.77;233376;1215;139851;-58
2022/04/06 22:27:41;;;;;;;23.10;9.80;;;;;;;11.02;57.13;97527.55;233502;1217;140869;-57
2022/04/06 22:32:44;;;;;;;18.90;9.10;;;;;;;11.01;57.35;97517.90;233321;1216;140030;-58
2022/04/06 22:37:47;;;;;;;16.50;10.30;;;;;;;11.00;57.47;97524.04;233364;1217;141271;-58
2022/04/06 22:42:50;;;;;;;26.50;10.60;;;;;;;10.98;57.81;97518.90;233252;1217;139392;-55
2022/04/06 22:47:54;;;;;;;21.70;10.40;;;;;;;10.93;57.83;97518.23;233218;1217;138989;-59
2022/04/06 22:52:57;;;;;;;26.00;10.50;;;;;;;10.90;58.19;97509.27;233350;1217;139473;-59
2022/04/06 22:58:00;;;;;;;18.60;10.60;;;;;;;10.86;57.75;97505.72;233280;1217;138820;-58
2022/04/06 23:03:03;;;;;;;16.80;10.70;;;;;;;10.78;58.09;97495.61;233497;1217;140015;-59
2022/04/06 23:08:06;;;;;;;17.60;10.40;;;;;;;10.70;58.15;97495.60;233390;1217;139431;-57
2022/04/06 23:13:09;;;;;;;16.90;10.20;;;;;;;10.60;58.27;97489.70;233413;1215;140122;-56
2022/04/06 23:18:13;;;;;;;15.90;9.70;;;;;;;10.49;58.59;97481.63;233427;1217;139694;-59
2022/04/06 23:23:16;;;;;;;15.70;10.40;;;;;;;10.42;58.66;97471.44;233231;1217;139255;-58